Time;durP1;ratioP1;P1;durP2;ratioP2;P2;SDS_P1;SDS_P2;PMS_P1;PMS_P2;Temp;Humidity;BMP_temperature;BMP_pressure;BME280_temperature;BME280_humidity;BME280_pressure;Samples;Min_cycle;Max_cycle;Signal;HPM_P1;HPM_P2
2023/03/28 00:01:11;;;;;;;15.75;2.47;;;;;;;;;;4994476;28;20073;-87
2023/03/28 00:03:41;;;;;;;15.23;2.30;;;;;;;;;;4996228;28;20070;-84
2023/03/28 00:06:11;;;;;;;17.67;2.50;;;;;;;;;;4963466;28;1107366;-86
2023/03/28 00:08:38;;;;;;;19.35;2.40;;;;;;;;;;4996549;28;20051;-85
2023/03/28 00:11:05;;;;;;;16.90;2.40;;;;;;;;;;4997830;28;20488;-86
2023/03/28 00:13:32;;;;;;;15.55;2.80;;;;;;;;;;4998149;28;20050;-86
2023/03/28 00:16:02;;;;;;;12.57;2.35;;;;;;;;;;4999320;28;20047;-85
2023/03/28 00:18:28;;;;;;;18.38;2.28;;;;;;;;;;4994821;28;20125;-84
2023/03/28 00:20:55;;;;;;;16.20;2.50;;;;;;;;;;5001019;28;20054;-85
2023/03/28 00:23:21;;;;;;;17.00;2.75;;;;;;;;;;5001137;28;20046;-85
2023/03/28 00:25:47;;;;;;;20.63;2.42;;;;;;;;;;5000347;28;20042;-85
2023/03/28 00:28:13;;;;;;;20.73;2.67;;;;;;;;;;5001256;28;20113;-85
2023/03/28 00:30:39;;;;;;;12.27;1.90;;;;;;;;;;5002314;28;20042;-85
2023/03/28 00:33:06;;;;;;;17.35;2.30;;;;;;;;;;5002837;28;20057;-85
2023/03/28 00:35:32;;;;;;;16.67;2.30;;;;;;;;;;5002080;28;20401;-85
2023/03/28 00:37:58;;;;;;;14.77;2.10;;;;;;;;;;5000574;28;20042;-85
2023/03/28 00:40:26;;;;;;;13.85;2.30;;;;;;;;;;5005442;28;20073;-85
2023/03/28 00:42:52;;;;;;;14.13;1.98;;;;;;;;;;5001367;28;20050;-84
2023/03/28 00:45:20;;;;;;;23.42;2.60;;;;;;;;;;5003719;28;20046;-86
2023/03/28 00:48:06;;;;;;;13.35;2.50;;;;;;;;;;5002992;28;20054;-85
2023/03/28 00:50:36;;;;;;;15.80;2.22;;;;;;;;;;5003931;28;20052;-86
2023/03/28 00:53:03;;;;;;;14.98;2.30;;;;;;;;;;4995577;28;20127;-84
2023/03/28 00:55:41;;;;;;;17.30;2.55;;;;;;;;;;5001564;28;20052;-85
2023/03/28 00:58:09;;;;;;;16.05;2.20;;;;;;;;;;5003582;28;20055;-85
2023/03/28 01:00:36;;;;;;;15.93;2.20;;;;;;;;;;4996609;28;20182;-85
2023/03/28 01:03:05;;;;;;;20.85;2.53;;;;;;;;;;4994962;28;20038;-85
2023/03/28 01:05:32;;;;;;;14.23;2.45;;;;;;;;;;4994464;28;20396;-85
2023/03/28 01:08:21;;;;;;;13.38;2.22;;;;;;;;;;4996546;28;20137;-84
2023/03/28 01:10:48;;;;;;;18.10;2.60;;;;;;;;;;4994253;28;20074;-84
2023/03/28 01:13:16;;;;;;;15.82;2.53;;;;;;;;;;4979361;28;20763;-84
2023/03/28 01:15:42;;;;;;;18.83;2.63;;;;;;;;;;4997510;28;20052;-85
2023/03/28 01:18:12;;;;;;;18.02;2.53;;;;;;;;;;4998290;28;20066;-86
2023/03/28 01:20:38;;;;;;;20.05;2.45;;;;;;;;;;5002975;28;20046;-85
2023/03/28 01:23:22;;;;;;;16.83;2.25;;;;;;;;;;4991267;28;20129;-84
2023/03/28 01:26:05;;;;;;;16.25;2.35;;;;;;;;;;4989504;28;20055;-85
2023/03/28 01:29:03;;;;;;;16.48;2.35;;;;;;;;;;4996528;28;20097;-85
2023/03/28 01:31:45;;;;;;;20.58;2.22;;;;;;;;;;5002955;28;20061;-85
2023/03/28 01:34:30;;;;;;;17.27;2.35;;;;;;;;;;4995332;28;20105;-85
2023/03/28 01:36:56;;;;;;;22.45;2.58;;;;;;;;;;5000169;28;20053;-84
2023/03/28 01:39:31;;;;;;;12.07;2.17;;;;;;;;;;5001853;28;20082;-86
2023/03/28 01:42:01;;;;;;;16.98;2.30;;;;;;;;;;5001177;28;20078;-85
2023/03/28 01:44:32;;;;;;;18.75;2.47;;;;;;;;;;5003553;28;20042;-85
2023/03/28 01:47:03;;;;;;;14.93;2.17;;;;;;;;;;5001620;28;20676;-85
2023/03/28 01:49:41;;;;;;;19.80;2.40;;;;;;;;;;5003433;28;20045;-85
2023/03/28 01:52:28;;;;;;;15.98;2.35;;;;;;;;;;4984299;28;20046;-84
2023/03/28 01:54:54;;;;;;;18.50;2.60;;;;;;;;;;5000119;28;20448;-84
2023/03/28 01:57:33;;;;;;;19.02;3.00;;;;;;;;;;5001476;28;20086;-86
2023/03/28 02:00:11;;;;;;;12.27;2.05;;;;;;;;;;5000923;28;20038;-86
2023/03/28 02:02:48;;;;;;;18.92;2.13;;;;;;;;;;5000819;28;20106;-86
2023/03/28 02:05:15;;;;;;;15.68;2.00;;;;;;;;;;4998822;28;20484;-86
2023/03/28 02:07:42;;;;;;;14.55;2.28;;;;;;;;;;4997968;28;20050;-85
2023/03/28 02:10:09;;;;;;;18.70;2.33;;;;;;;;;;5002297;28;20052;-87
2023/03/28 02:12:47;;;;;;;14.75;2.10;;;;;;;;;;4996265;28;20050;-86
2023/03/28 02:15:15;;;;;;;16.05;2.40;;;;;;;;;;4983992;28;20121;-87
2023/03/28 02:17:43;;;;;;;19.23;2.55;;;;;;;;;;5002447;28;20129;-86
2023/03/28 02:20:10;;;;;;;16.88;2.45;;;;;;;;;;5004293;28;20042;-84
2023/03/28 02:22:45;;;;;;;19.98;2.28;;;;;;;;;;5016548;28;20046;-85
2023/03/28 02:25:12;;;;;;;13.52;2.10;;;;;;;;;;5020830;28;20026;-84
2023/03/28 02:27:38;;;;;;;15.07;2.78;;;;;;;;;;5000801;28;20046;-84
2023/03/28 02:30:06;;;;;;;20.95;3.00;;;;;;;;;;5004333;28;20080;-84
2023/03/28 02:32:35;;;;;;;14.80;2.53;;;;;;;;;;5005718;28;20530;-86
2023/03/28 02:35:03;;;;;;;15.35;2.58;;;;;;;;;;5006102;28;20042;-85
2023/03/28 02:37:29;;;;;;;14.80;2.38;;;;;;;;;;5005705;28;20038;-86
2023/03/28 02:40:16;;;;;;;20.95;2.58;;;;;;;;;;5004867;28;20571;-85
2023/03/28 02:42:53;;;;;;;16.65;2.60;;;;;;;;;;5004393;28;20516;-85
2023/03/28 02:45:19;;;;;;;17.05;2.58;;;;;;;;;;5003565;28;20504;-86
2023/03/28 02:47:45;;;;;;;15.23;2.00;;;;;;;;;;5005988;28;20519;-86
2023/03/28 02:50:14;;;;;;;16.08;2.28;;;;;;;;;;5004938;28;20038;-86
2023/03/28 02:52:50;;;;;;;16.00;2.47;;;;;;;;;;5005257;28;20374;-86
2023/03/28 02:55:20;;;;;;;17.83;2.22;;;;;;;;;;4988775;28;20050;-86
2023/03/28 02:57:54;;;;;;;15.05;2.72;;;;;;;;;;5005326;28;20069;-87
2023/03/28 03:00:20;;;;;;;15.35;2.65;;;;;;;;;;5004720;28;20048;-86
2023/03/28 03:02:50;;;;;;;11.48;2.30;;;;;;;;;;5005632;28;20069;-86
2023/03/28 03:05:19;;;;;;;13.77;1.85;;;;;;;;;;5002167;28;20042;-85
2023/03/28 03:07:45;;;;;;;17.95;2.30;;;;;;;;;;5001313;28;20050;-86
2023/03/28 03:10:13;;;;;;;16.83;2.53;;;;;;;;;;5001012;28;20058;-85
2023/03/28 03:12:39;;;;;;;14.65;2.22;;;;;;;;;;4995469;28;20054;-86
2023/03/28 03:15:06;;;;;;;11.57;1.90;;;;;;;;;;4995436;28;20464;-86
2023/03/28 03:17:32;;;;;;;11.00;2.17;;;;;;;;;;4999853;28;20046;-86
2023/03/28 03:20:01;;;;;;;12.15;2.22;;;;;;;;;;4996572;28;20042;-85
2023/03/28 03:22:27;;;;;;;19.73;2.45;;;;;;;;;;4998151;28;20058;-86
2023/03/28 03:24:55;;;;;;;20.85;2.05;;;;;;;;;;4998594;28;20125;-86
2023/03/28 03:27:21;;;;;;;11.57;1.92;;;;;;;;;;5001060;28;20099;-86
2023/03/28 03:29:47;;;;;;;13.60;2.00;;;;;;;;;;4996224;28;20042;-86
2023/03/28 03:32:14;;;;;;;16.13;2.50;;;;;;;;;;4999751;28;20048;-87
2023/03/28 03:34:40;;;;;;;20.08;2.35;;;;;;;;;;5000849;28;20074;-86
2023/03/28 03:37:08;;;;;;;18.65;3.10;;;;;;;;;;5008270;28;20057;-85
2023/03/28 03:39:35;;;;;;;20.05;2.42;;;;;;;;;;4999311;28;20043;-87
2023/03/28 03:42:01;;;;;;;14.88;2.50;;;;;;;;;;5005787;28;20120;-86
2023/03/28 03:44:27;;;;;;;12.55;2.20;;;;;;;;;;5003401;28;20038;-86
2023/03/28 03:46:53;;;;;;;11.65;1.92;;;;;;;;;;5005464;28;20050;-87
2023/03/28 03:49:19;;;;;;;17.13;2.20;;;;;;;;;;5005006;28;20038;-86
2023/03/28 03:51:45;;;;;;;16.55;1.83;;;;;;;;;;5001721;28;20051;-87
2023/03/28 03:54:12;;;;;;;16.55;2.83;;;;;;;;;;5002398;28;20524;-87
2023/03/28 03:56:38;;;;;;;13.25;2.00;;;;;;;;;;4998191;28;20101;-87
2023/03/28 03:59:04;;;;;;;23.67;3.50;;;;;;;;;;4994344;28;20038;-86
2023/03/28 04:01:30;;;;;;;19.77;2.25;;;;;;;;;;5000966;28;20077;-85
2023/03/28 04:03:56;;;;;;;14.07;2.90;;;;;;;;;;4997771;28;20382;-87
2023/03/28 04:06:23;;;;;;;16.02;2.60;;;;;;;;;;4994105;28;20054;-87
2023/03/28 04:08:53;;;;;;;18.05;2.45;;;;;;;;;;5002351;28;20047;-86
2023/03/28 04:11:19;;;;;;;18.60;2.40;;;;;;;;;;5001758;28;20121;-87
2023/03/28 04:13:45;;;;;;;17.05;2.80;;;;;;;;;;4983678;28;20056;-87
2023/03/28 04:16:12;;;;;;;17.35;2.03;;;;;;;;;;5003967;28;20042;-86
2023/03/28 04:18:38;;;;;;;19.42;2.70;;;;;;;;;;5003802;28;20049;-85
2023/03/28 04:21:05;;;;;;;18.42;2.25;;;;;;;;;;5001147;28;20054;-87
2023/03/28 04:23:33;;;;;;;18.98;2.22;;;;;;;;;;4985271;28;20097;-87
2023/03/28 04:26:01;;;;;;;11.38;2.20;;;;;;;;;;4970850;28;20050;-87
2023/03/28 04:28:27;;;;;;;12.88;2.05;;;;;;;;;;4994046;28;20078;-87
2023/03/28 04:30:56;;;;;;;12.70;2.42;;;;;;;;;;4994304;28;20104;-86
2023/03/28 04:33:26;;;;;;;16.77;1.98;;;;;;;;;;4991298;28;20054;-87
2023/03/28 04:35:58;;;;;;;16.42;2.47;;;;;;;;;;4978687;28;20054;-88
2023/03/28 04:38:25;;;;;;;12.77;2.22;;;;;;;;;;4992889;28;20042;-86
2023/03/28 04:40:56;;;;;;;14.70;2.00;;;;;;;;;;4996773;28;20050;-87
2023/03/28 04:43:32;;;;;;;13.93;2.55;;;;;;;;;;4994407;28;20042;-87
2023/03/28 04:45:58;;;;;;;13.57;2.20;;;;;;;;;;4993839;28;20583;-88
2023/03/28 04:48:25;;;;;;;16.40;2.50;;;;;;;;;;4992043;28;20100;-87
2023/03/28 04:50:52;;;;;;;15.13;2.58;;;;;;;;;;4994376;28;20093;-88
2023/03/28 04:53:18;;;;;;;14.95;2.42;;;;;;;;;;4977896;28;20108;-86
2023/03/28 04:55:49;;;;;;;21.10;2.60;;;;;;;;;;4991009;28;20031;-86
2023/03/28 04:58:18;;;;;;;15.35;2.40;;;;;;;;;;5015974;28;20064;-89
2023/03/28 05:00:44;;;;;;;19.98;2.53;;;;;;;;;;5006845;28;20042;-88
2023/03/28 05:03:17;;;;;;;20.42;2.72;;;;;;;;;;4987814;28;20069;-87
2023/03/28 05:05:44;;;;;;;21.45;2.70;;;;;;;;;;4979866;28;20085;-87
2023/03/28 05:08:11;;;;;;;15.73;2.60;;;;;;;;;;5000577;28;20058;-87
2023/03/28 05:10:38;;;;;;;16.73;2.45;;;;;;;;;;5002335;28;20046;-87
2023/03/28 05:13:04;;;;;;;16.67;2.80;;;;;;;;;;4999954;28;20050;-88
2023/03/28 05:15:30;;;;;;;15.48;2.70;;;;;;;;;;4999491;28;20042;-87
2023/03/28 05:17:57;;;;;;;16.10;2.30;;;;;;;;;;5000286;28;20567;-87
2023/03/28 05:20:24;;;;;;;12.90;2.60;;;;;;;;;;4995752;28;20365;-87
2023/03/28 05:22:50;;;;;;;19.05;2.80;;;;;;;;;;4990591;28;20074;-87
2023/03/28 05:25:16;;;;;;;19.83;2.72;;;;;;;;;;4996937;28;20050;-87
2023/03/28 05:27:43;;;;;;;18.52;2.75;;;;;;;;;;4987189;28;20512;-88
2023/03/28 05:30:10;;;;;;;18.05;2.58;;;;;;;;;;4998953;28;20419;-87
2023/03/28 05:32:39;;;;;;;16.10;2.53;;;;;;;;;;4985373;28;20113;-87
2023/03/28 05:35:06;;;;;;;14.60;2.45;;;;;;;;;;4998755;28;20070;-87
2023/03/28 05:37:32;;;;;;;15.80;3.05;;;;;;;;;;5000890;28;20042;-87
2023/03/28 05:39:58;;;;;;;19.75;2.78;;;;;;;;;;5003095;28;20041;-87
2023/03/28 05:42:25;;;;;;;16.92;2.53;;;;;;;;;;5001711;28;20056;-87
2023/03/28 05:44:51;;;;;;;19.75;3.10;;;;;;;;;;4995433;28;20042;-87
2023/03/28 05:47:17;;;;;;;17.92;3.00;;;;;;;;;;5002673;28;20050;-87
2023/03/28 05:49:44;;;;;;;17.67;3.05;;;;;;;;;;4984110;28;20058;-87
2023/03/28 05:52:10;;;;;;;16.02;4.45;;;;;;;;;;5000016;28;20097;-86
2023/03/28 05:54:36;;;;;;;19.90;4.30;;;;;;;;;;5000755;28;20196;-87
2023/03/28 05:57:02;;;;;;;20.27;3.83;;;;;;;;;;4999534;28;20052;-86
2023/03/28 05:59:31;;;;;;;20.60;3.10;;;;;;;;;;4996752;28;20042;-87
2023/03/28 06:01:57;;;;;;;16.25;2.83;;;;;;;;;;4997383;28;20043;-87
2023/03/28 06:04:24;;;;;;;16.60;2.60;;;;;;;;;;4974802;28;20413;-87
2023/03/28 06:06:51;;;;;;;14.20;2.20;;;;;;;;;;5001958;28;20058;-86
2023/03/28 06:09:17;;;;;;;9.77;2.00;;;;;;;;;;4999756;28;20073;-87
2023/03/28 06:11:44;;;;;;;20.10;3.08;;;;;;;;;;5000609;28;20058;-86
2023/03/28 06:14:17;;;;;;;17.42;2.58;;;;;;;;;;4972174;28;20061;-86
2023/03/28 06:16:43;;;;;;;16.33;3.15;;;;;;;;;;4996816;28;20548;-86
2023/03/28 06:19:10;;;;;;;10.70;2.70;;;;;;;;;;4996908;28;20686;-85
2023/03/28 06:21:36;;;;;;;15.68;2.80;;;;;;;;;;4998650;28;20077;-85
2023/03/28 06:24:02;;;;;;;13.00;2.42;;;;;;;;;;5000389;28;20051;-85
2023/03/28 06:26:28;;;;;;;12.90;2.30;;;;;;;;;;4997898;28;20039;-85
2023/03/28 06:28:54;;;;;;;12.80;2.42;;;;;;;;;;4998063;28;20046;-85
2023/03/28 06:31:20;;;;;;;12.02;2.20;;;;;;;;;;5000241;28;20485;-84
2023/03/28 06:33:46;;;;;;;13.90;2.47;;;;;;;;;;4999888;28;20053;-85
2023/03/28 06:36:12;;;;;;;16.13;2.83;;;;;;;;;;4986426;28;20101;-85
2023/03/28 06:38:38;;;;;;;13.63;2.47;;;;;;;;;;4979515;28;20058;-85
2023/03/28 06:41:05;;;;;;;14.90;2.90;;;;;;;;;;5000999;28;20046;-85
2023/03/28 06:43:31;;;;;;;11.52;2.50;;;;;;;;;;4990573;28;20050;-85
2023/03/28 06:45:57;;;;;;;12.52;2.60;;;;;;;;;;4996175;28;20066;-85
2023/03/28 06:48:29;;;;;;;14.93;2.80;;;;;;;;;;4998019;28;20065;-86
2023/03/28 06:50:55;;;;;;;21.38;4.57;;;;;;;;;;5001869;28;20126;-84
2023/03/28 06:53:21;;;;;;;17.92;5.00;;;;;;;;;;5002192;28;20051;-85
2023/03/28 06:55:49;;;;;;;17.33;4.50;;;;;;;;;;4999783;28;20049;-86
2023/03/28 06:58:15;;;;;;;15.00;4.45;;;;;;;;;;5001314;28;20225;-84
2023/03/28 07:00:41;;;;;;;14.10;4.20;;;;;;;;;;5002753;28;20097;-85
2023/03/28 07:03:08;;;;;;;17.85;4.85;;;;;;;;;;5000440;28;20038;-84
2023/03/28 07:05:38;;;;;;;13.40;4.05;;;;;;;;;;4989085;28;20463;-84
2023/03/28 07:08:05;;;;;;;15.77;5.00;;;;;;;;;;4984218;28;20481;-85
2023/03/28 07:10:31;;;;;;;14.40;4.65;;;;;;;;;;5000498;28;20302;-85
2023/03/28 07:12:57;;;;;;;14.00;4.05;;;;;;;;;;5003173;28;20050;-85
2023/03/28 07:15:23;;;;;;;18.60;4.65;;;;;;;;;;5004799;28;20049;-85
2023/03/28 07:17:49;;;;;;;14.82;4.22;;;;;;;;;;5003195;28;20049;-85
2023/03/28 07:20:15;;;;;;;15.77;5.22;;;;;;;;;;5004419;28;20081;-84
2023/03/28 07:22:43;;;;;;;16.48;5.47;;;;;;;;;;5003848;28;20046;-85
2023/03/28 07:25:10;;;;;;;13.02;4.13;;;;;;;;;;5004380;28;20472;-85
2023/03/28 07:27:36;;;;;;;15.27;3.35;;;;;;;;;;5003629;28;20046;-85
2023/03/28 07:30:02;;;;;;;13.90;3.90;;;;;;;;;;5007414;28;20385;-85
2023/03/28 07:32:28;;;;;;;13.18;2.72;;;;;;;;;;4998368;28;20042;-84
2023/03/28 07:34:54;;;;;;;12.93;2.67;;;;;;;;;;4995652;28;20038;-85
2023/03/28 07:37:20;;;;;;;9.70;2.88;;;;;;;;;;4997658;28;20393;-86
2023/03/28 07:39:50;;;;;;;16.60;4.35;;;;;;;;;;4999290;28;20081;-85
2023/03/28 07:42:16;;;;;;;15.13;4.35;;;;;;;;;;4999706;28;20046;-85
2023/03/28 07:44:42;;;;;;;17.17;4.13;;;;;;;;;;4994074;28;20405;-85
2023/03/28 07:47:09;;;;;;;12.77;3.35;;;;;;;;;;4999275;28;20050;-85
2023/03/28 07:49:34;;;;;;;13.15;3.20;;;;;;;;;;5004798;28;20046;-86
2023/03/28 07:52:02;;;;;;;12.85;3.72;;;;;;;;;;4994983;28;20077;-85
2023/03/28 07:54:28;;;;;;;11.50;2.53;;;;;;;;;;4997247;28;20042;-85
2023/03/28 07:56:54;;;;;;;11.90;2.50;;;;;;;;;;5000589;28;20088;-85
2023/03/28 07:59:20;;;;;;;11.27;2.72;;;;;;;;;;5002709;28;20401;-86
2023/03/28 08:01:47;;;;;;;11.10;2.13;;;;;;;;;;5006293;28;20046;-85
2023/03/28 08:04:13;;;;;;;10.15;2.38;;;;;;;;;;5004149;28;20058;-85
2023/03/28 08:06:40;;;;;;;13.23;2.30;;;;;;;;;;5004435;28;20046;-86
2023/03/28 08:09:10;;;;;;;8.02;2.42;;;;;;;;;;4999819;28;20058;-86
2023/03/28 08:11:37;;;;;;;10.57;2.33;;;;;;;;;;4997200;28;20110;-86
2023/03/28 08:14:04;;;;;;;9.13;1.73;;;;;;;;;;4987864;28;20097;-86
2023/03/28 08:16:31;;;;;;;11.02;2.25;;;;;;;;;;5006258;28;20042;-85
2023/03/28 08:18:57;;;;;;;9.93;1.65;;;;;;;;;;5005623;28;20046;-85
2023/03/28 08:21:24;;;;;;;9.98;1.73;;;;;;;;;;5006313;28;20046;-85
2023/03/28 08:23:51;;;;;;;9.75;1.77;;;;;;;;;;5004579;28;20046;-86
2023/03/28 08:26:17;;;;;;;10.95;1.67;;;;;;;;;;5005695;28;20077;-85
2023/03/28 08:28:43;;;;;;;12.43;1.83;;;;;;;;;;5000055;28;20102;-85
2023/03/28 08:31:13;;;;;;;9.40;1.73;;;;;;;;;;5004297;28;20058;-86
2023/03/28 08:33:40;;;;;;;11.27;1.50;;;;;;;;;;5001362;28;21474;-85
2023/03/28 08:36:07;;;;;;;10.48;1.58;;;;;;;;;;5005732;28;20053;-85
2023/03/28 08:38:34;;;;;;;8.90;1.52;;;;;;;;;;5004026;28;20148;-86
2023/03/28 08:41:07;;;;;;;9.85;1.70;;;;;;;;;;5004489;28;20053;-86
2023/03/28 08:43:47;;;;;;;11.68;1.70;;;;;;;;;;5004989;28;20054;-85
2023/03/28 08:46:14;;;;;;;10.98;1.77;;;;;;;;;;5002935;28;20038;-85
2023/03/28 08:48:43;;;;;;;10.88;1.50;;;;;;;;;;5002240;28;20046;-85
2023/03/28 08:51:21;;;;;;;10.27;1.63;;;;;;;;;;5001992;28;20054;-85
2023/03/28 08:54:08;;;;;;;10.88;1.38;;;;;;;;;;5002295;28;20046;-86
2023/03/28 08:56:40;;;;;;;9.30;1.30;;;;;;;;;;4987820;28;20059;-86
2023/03/28 08:59:07;;;;;;;10.25;1.70;;;;;;;;;;5006945;28;20098;-85
2023/03/28 09:01:33;;;;;;;7.88;1.40;;;;;;;;;;5000803;28;20046;-86
2023/03/28 09:04:00;;;;;;;10.00;1.92;;;;;;;;;;5009280;28;20070;-86
2023/03/28 09:06:37;;;;;;;9.98;1.80;;;;;;;;;;5007679;28;20062;-87
2023/03/28 09:09:10;;;;;;;8.48;1.50;;;;;;;;;;5009694;28;20053;-84
2023/03/28 09:11:55;;;;;;;8.75;1.65;;;;;;;;;;5010180;28;20104;-85
2023/03/28 09:14:47;;;;;;;8.73;1.70;;;;;;;;;;4983499;28;20047;-85
2023/03/28 09:17:23;;;;;;;6.15;1.20;;;;;;;;;;5012306;28;20085;-85
2023/03/28 09:19:49;;;;;;;9.65;1.85;;;;;;;;;;5009354;28;20059;-85
2023/03/28 09:22:34;;;;;;;8.27;1.45;;;;;;;;;;5010074;28;20052;-85
2023/03/28 09:25:21;;;;;;;7.68;1.40;;;;;;;;;;5001583;28;20042;-85
2023/03/28 09:27:47;;;;;;;7.40;1.20;;;;;;;;;;4999424;28;20484;-86
2023/03/28 09:30:13;;;;;;;8.68;1.35;;;;;;;;;;5003782;28;20098;-86
2023/03/28 09:32:40;;;;;;;7.50;1.70;;;;;;;;;;5005652;28;20400;-87
2023/03/28 09:35:26;;;;;;;6.78;1.60;;;;;;;;;;4986775;28;20070;-85
2023/03/28 09:37:53;;;;;;;6.05;1.20;;;;;;;;;;4988697;28;20047;-85
2023/03/28 09:40:22;;;;;;;9.55;1.50;;;;;;;;;;5002759;28;20095;-85
2023/03/28 09:42:51;;;;;;;7.82;1.45;;;;;;;;;;5007545;28;20082;-84
2023/03/28 09:45:39;;;;;;;5.85;1.27;;;;;;;;;;5008239;28;20131;-85
2023/03/28 09:48:06;;;;;;;6.75;1.30;;;;;;;;;;4997605;28;20564;-85
2023/03/28 09:50:32;;;;;;;6.47;1.30;;;;;;;;;;4988255;28;20050;-85
2023/03/28 09:52:59;;;;;;;7.40;1.50;;;;;;;;;;5003177;28;20047;-85
2023/03/28 09:55:27;;;;;;;6.68;1.33;;;;;;;;;;5001405;28;20050;-86
2023/03/28 09:58:00;;;;;;;5.72;1.35;;;;;;;;;;5001183;28;20057;-85
2023/03/28 10:00:26;;;;;;;9.68;2.40;;;;;;;;;;5002359;28;20058;-85
2023/03/28 10:02:53;;;;;;;9.77;1.73;;;;;;;;;;5004531;28;20540;-85
2023/03/28 10:05:31;;;;;;;5.95;1.30;;;;;;;;;;5004191;28;20054;-85
2023/03/28 10:07:58;;;;;;;6.57;1.30;;;;;;;;;;5006292;28;20074;-84
2023/03/28 10:10:24;;;;;;;6.75;1.27;;;;;;;;;;5007554;28;20061;-85
2023/03/28 10:12:55;;;;;;;6.53;1.30;;;;;;;;;;4997600;28;20054;-86
2023/03/28 10:15:33;;;;;;;7.00;1.35;;;;;;;;;;5003699;28;20448;-86
2023/03/28 10:18:01;;;;;;;7.15;1.42;;;;;;;;;;4980363;28;20504;-86
2023/03/28 10:20:27;;;;;;;8.40;1.60;;;;;;;;;;4985401;28;20124;-84
2023/03/28 10:22:55;;;;;;;7.95;1.40;;;;;;;;;;4991967;28;20039;-84
2023/03/28 10:25:23;;;;;;;7.60;1.40;;;;;;;;;;5001196;28;20043;-85
2023/03/28 10:27:51;;;;;;;7.75;1.92;;;;;;;;;;5002055;28;20042;-85
2023/03/28 10:30:20;;;;;;;7.75;1.60;;;;;;;;;;5003601;28;20059;-85
2023/03/28 10:33:06;;;;;;;8.25;1.75;;;;;;;;;;5005007;28;20043;-85
2023/03/28 10:35:33;;;;;;;8.00;1.40;;;;;;;;;;5005791;28;20398;-85
2023/03/28 10:38:05;;;;;;;5.28;1.02;;;;;;;;;;5009220;28;20489;-85
2023/03/28 10:40:31;;;;;;;7.18;1.20;;;;;;;;;;5007524;28;20157;-84
2023/03/28 10:42:58;;;;;;;6.35;1.10;;;;;;;;;;4989258;28;20053;-84
2023/03/28 10:45:24;;;;;;;7.50;1.35;;;;;;;;;;5004568;28;20473;-84
2023/03/28 10:47:52;;;;;;;5.85;1.10;;;;;;;;;;5008064;28;20085;-85
2023/03/28 10:50:40;;;;;;;8.43;1.33;;;;;;;;;;5007275;28;20042;-87
2023/03/28 10:53:12;;;;;;;7.50;1.35;;;;;;;;;;5008078;28;20058;-86
2023/03/28 10:55:40;;;;;;;6.75;1.10;;;;;;;;;;5007561;28;20081;-85
2023/03/28 10:58:30;;;;;;;8.85;1.92;;;;;;;;;;5008419;28;20050;-86
2023/03/28 11:01:00;;;;;;;7.68;2.03;;;;;;;;;;5009819;28;20060;-86
2023/03/28 11:03:34;;;;;;;5.68;1.73;;;;;;;;;;5008203;28;20053;-86
2023/03/28 11:06:12;;;;;;;6.22;1.20;;;;;;;;;;5007869;28;20519;-85
2023/03/28 11:08:52;;;;;;;7.78;1.63;;;;;;;;;;5007046;28;20053;-85
2023/03/28 11:11:28;;;;;;;7.65;1.48;;;;;;;;;;5007689;28;20057;-85
2023/03/28 11:14:00;;;;;;;5.05;1.27;;;;;;;;;;5005885;28;20050;-86
2023/03/28 11:16:35;;;;;;;8.70;1.55;;;;;;;;;;5007817;28;20062;-86
2023/03/28 11:19:20;;;;;;;8.88;1.90;;;;;;;;;;5005669;28;20105;-86
2023/03/28 11:22:05;;;;;;;7.45;1.70;;;;;;;;;;5003918;28;20050;-85
2023/03/28 11:24:41;;;;;;;5.57;1.23;;;;;;;;;;5007507;28;20068;-85
2023/03/28 11:27:11;;;;;;;6.10;1.50;;;;;;;;;;5006142;28;20055;-84
2023/03/28 11:29:40;;;;;;;5.18;1.55;;;;;;;;;;5007398;28;20049;-85
2023/03/28 11:32:21;;;;;;;9.77;1.63;;;;;;;;;;5006841;28;20096;-84
2023/03/28 11:34:47;;;;;;;;;;;;;;;;;;5007606;28;20054;-85
2023/03/28 11:37:27;;;;;;;6.72;1.83;;;;;;;;;;5006828;28;19964;-85
2023/03/28 11:39:54;;;;;;;6.65;1.58;;;;;;;;;;5005970;28;20094;-84
2023/03/28 11:42:26;;;;;;;6.10;1.10;;;;;;;;;;5006594;28;20057;-85
2023/03/28 11:44:55;;;;;;;5.93;1.38;;;;;;;;;;5006317;28;20046;-85
2023/03/28 11:47:23;;;;;;;5.45;1.08;;;;;;;;;;5009052;28;20081;-86
2023/03/28 11:49:56;;;;;;;7.25;1.83;;;;;;;;;;5010806;28;20085;-85
2023/03/28 11:52:24;;;;;;;9.25;1.63;;;;;;;;;;5009257;28;20072;-86
2023/03/28 11:55:14;;;;;;;8.23;1.50;;;;;;;;;;5008720;28;20042;-85
2023/03/28 11:58:05;;;;;;;6.07;1.50;;;;;;;;;;4990701;28;20065;-85
2023/03/28 12:00:38;;;;;;;11.13;1.60;;;;;;;;;;5008299;28;20046;-86
2023/03/28 12:03:22;;;;;;;8.95;1.70;;;;;;;;;;4984927;28;20050;-85
2023/03/28 12:06:11;;;;;;;7.80;1.48;;;;;;;;;;4995393;28;20046;-86
2023/03/28 12:08:37;;;;;;;7.07;1.60;;;;;;;;;;5005991;28;20098;-87
2023/03/28 12:11:06;;;;;;;7.57;1.50;;;;;;;;;;4989325;28;20057;-87
2023/03/28 12:13:45;;;;;;;8.77;1.50;;;;;;;;;;5002721;28;20064;-85
2023/03/28 12:16:13;;;;;;;6.40;1.40;;;;;;;;;;5006377;28;20089;-87
2023/03/28 12:18:43;;;;;;;7.18;1.30;;;;;;;;;;5002225;28;20509;-86
2023/03/28 12:21:09;;;;;;;7.70;1.50;;;;;;;;;;5003618;28;20434;-86
2023/03/28 12:23:41;;;;;;;6.78;1.50;;;;;;;;;;4984658;28;20070;-87
2023/03/28 12:26:16;;;;;;;6.03;1.33;;;;;;;;;;5001360;28;20038;-85
2023/03/28 12:28:50;;;;;;;7.50;1.60;;;;;;;;;;5001500;28;20501;-86
2023/03/28 12:31:25;;;;;;;6.95;1.73;;;;;;;;;;4998181;28;20104;-86
2023/03/28 12:33:59;;;;;;;7.45;1.77;;;;;;;;;;4998583;28;20046;-86
2023/03/28 12:36:28;;;;;;;7.05;1.70;;;;;;;;;;5002169;28;20084;-86
2023/03/28 12:38:56;;;;;;;7.93;1.60;;;;;;;;;;5001795;28;20050;-86
2023/03/28 12:41:31;;;;;;;9.15;1.90;;;;;;;;;;5004035;28;20053;-85
2023/03/28 12:44:23;;;;;;;8.05;1.50;;;;;;;;;;4997978;28;20046;-86
2023/03/28 12:46:58;;;;;;;8.18;2.08;;;;;;;;;;4999221;28;20058;-86
2023/03/28 12:49:24;;;;;;;6.40;1.40;;;;;;;;;;5002800;28;20050;-85
2023/03/28 12:51:55;;;;;;;7.15;1.40;;;;;;;;;;5001594;28;20133;-86
2023/03/28 12:54:29;;;;;;;9.60;1.80;;;;;;;;;;5001266;28;20056;-86
2023/03/28 12:57:11;;;;;;;6.45;1.67;;;;;;;;;;5002839;28;20089;-85
2023/03/28 12:59:37;;;;;;;6.90;1.60;;;;;;;;;;5002130;28;20042;-86
2023/03/28 13:02:18;;;;;;;6.82;1.65;;;;;;;;;;5003836;28;20493;-86
2023/03/28 13:04:55;;;;;;;8.32;1.88;;;;;;;;;;5000969;28;20064;-87
2023/03/28 13:07:39;;;;;;;6.05;1.60;;;;;;;;;;4999014;28;20085;-86
2023/03/28 13:10:17;;;;;;;8.32;2.05;;;;;;;;;;5006194;28;20053;-87
2023/03/28 13:13:02;;;;;;;8.35;2.08;;;;;;;;;;5003211;28;20445;-87
2023/03/28 13:15:30;;;;;;;6.82;1.90;;;;;;;;;;5002551;28;20101;-87
2023/03/28 13:18:15;;;;;;;10.13;2.15;;;;;;;;;;4986963;28;20042;-87
2023/03/28 13:20:45;;;;;;;7.88;1.95;;;;;;;;;;5004934;28;20401;-87
2023/03/28 13:23:13;;;;;;;6.93;1.98;;;;;;;;;;5004361;28;20102;-87
2023/03/28 13:25:39;;;;;;;7.63;2.00;;;;;;;;;;4991875;28;20100;-86
2023/03/28 13:28:12;;;;;;;7.90;2.20;;;;;;;;;;5007225;28;20144;-87
2023/03/28 13:30:40;;;;;;;8.30;2.20;;;;;;;;;;5004510;28;20046;-86
2023/03/28 13:33:19;;;;;;;7.20;1.90;;;;;;;;;;5005586;28;20050;-88
2023/03/28 13:36:12;;;;;;;8.98;2.45;;;;;;;;;;5005410;28;20400;-87
2023/03/28 13:38:49;;;;;;;7.72;2.50;;;;;;;;;;5007293;28;20046;-86
2023/03/28 13:41:34;;;;;;;7.53;2.78;;;;;;;;;;5009039;28;20057;-85
2023/03/28 13:44:03;;;;;;;9.57;2.20;;;;;;;;;;5006099;28;20148;-86
2023/03/28 13:46:42;;;;;;;7.95;2.33;;;;;;;;;;5006032;28;20129;-86
2023/03/28 13:49:11;;;;;;;7.13;2.53;;;;;;;;;;5005873;28;20057;-86
2023/03/28 13:51:37;;;;;;;7.65;2.10;;;;;;;;;;5008398;28;20058;-86
2023/03/28 13:54:04;;;;;;;8.40;2.15;;;;;;;;;;5008553;28;20046;-87
2023/03/28 13:56:34;;;;;;;7.75;2.40;;;;;;;;;;5006663;28;20512;-86
2023/03/28 13:59:04;;;;;;;7.88;2.15;;;;;;;;;;4986535;28;20057;-85
2023/03/28 14:01:36;;;;;;;11.38;2.33;;;;;;;;;;4994994;28;20460;-86
2023/03/28 14:04:02;;;;;;;4.97;1.70;;;;;;;;;;5000029;28;20081;-87
2023/03/28 14:06:29;;;;;;;7.03;2.35;;;;;;;;;;5004566;28;20080;-86
2023/03/28 14:08:57;;;;;;;8.40;2.05;;;;;;;;;;4983379;28;20045;-86
2023/03/28 14:11:29;;;;;;;7.70;2.30;;;;;;;;;;5008290;28;20057;-86
2023/03/28 14:14:06;;;;;;;7.70;2.20;;;;;;;;;;5006634;28;20038;-87
2023/03/28 14:16:33;;;;;;;8.30;2.08;;;;;;;;;;4992511;28;20086;-88
2023/03/28 14:19:01;;;;;;;8.55;2.55;;;;;;;;;;5006194;28;21560;-86
2023/03/28 14:21:27;;;;;;;6.80;2.00;;;;;;;;;;4995249;28;20050;-86
2023/03/28 14:24:02;;;;;;;8.00;2.40;;;;;;;;;;4999951;28;20053;-87
2023/03/28 14:26:30;;;;;;;8.05;2.30;;;;;;;;;;5009620;28;20145;-87
2023/03/28 14:29:06;;;;;;;6.85;2.60;;;;;;;;;;5006036;28;20081;-86
2023/03/28 14:31:35;;;;;;;10.32;2.75;;;;;;;;;;5006646;28;20070;-86
2023/03/28 14:34:14;;;;;;;9.70;2.88;;;;;;;;;;4992145;28;20057;-86
2023/03/28 14:36:57;;;;;;;6.45;2.35;;;;;;;;;;4984513;28;20053;-86
2023/03/28 14:39:24;;;;;;;9.45;2.65;;;;;;;;;;5007241;28;20046;-87
2023/03/28 14:41:50;;;;;;;8.02;2.70;;;;;;;;;;5008651;28;20080;-87
2023/03/28 14:44:16;;;;;;;7.65;2.58;;;;;;;;;;5003274;28;20054;-86
2023/03/28 14:46:42;;;;;;;8.20;2.85;;;;;;;;;;5005657;28;20050;-87
2023/03/28 14:49:16;;;;;;;8.10;2.78;;;;;;;;;;5008332;28;20046;-86
2023/03/28 14:51:45;;;;;;;6.60;2.38;;;;;;;;;;5007493;28;20101;-86
2023/03/28 14:54:13;;;;;;;10.35;2.65;;;;;;;;;;5008905;28;20050;-86